sensor_id;sensor_type;location;lat;lon;timestamp;P1;durP1;ratioP1;P2;durP2;ratioP2
19861;SDS011;10093;48.148;8.542;2023-05-09T00:00:50;8.32;;;5.82;;
19861;SDS011;10093;48.148;8.542;2023-05-09T00:03:15;14.18;;;7.72;;
19861;SDS011;10093;48.148;8.542;2023-05-09T00:05:41;17.40;;;8.82;;
19861;SDS011;10093;48.148;8.542;2023-05-09T00:08:07;8.40;;;6.20;;
19861;SDS011;10093;48.148;8.542;2023-05-09T00:10:33;10.50;;;6.45;;
19861;SDS011;10093;48.148;8.542;2023-05-09T00:12:59;13.05;;;8.05;;
19861;SDS011;10093;48.148;8.542;2023-05-09T00:15:24;10.27;;;6.43;;
19861;SDS011;10093;48.148;8.542;2023-05-09T00:17:50;8.65;;;5.95;;
19861;SDS011;10093;48.148;8.542;2023-05-09T00:20:17;9.25;;;6.30;;
19861;SDS011;10093;48.148;8.542;2023-05-09T00:22:42;6.32;;;4.97;;
19861;SDS011;10093;48.148;8.542;2023-05-09T00:25:08;7.28;;;5.15;;
19861;SDS011;10093;48.148;8.542;2023-05-09T00:27:34;11.05;;;6.50;;
19861;SDS011;10093;48.148;8.542;2023-05-09T00:30:00;8.75;;;6.28;;
19861;SDS011;10093;48.148;8.542;2023-05-09T00:32:26;15.48;;;7.53;;
19861;SDS011;10093;48.148;8.542;2023-05-09T00:34:53;11.93;;;6.78;;
19861;SDS011;10093;48.148;8.542;2023-05-09T00:37:18;1004.95;;;40.97;;
19861;SDS011;10093;48.148;8.542;2023-05-09T00:39:46;14.70;;;9.93;;
19861;SDS011;10093;48.148;8.542;2023-05-09T00:42:12;12.02;;;9.02;;
19861;SDS011;10093;48.148;8.542;2023-05-09T00:44:38;17.85;;;9.88;;
19861;SDS011;10093;48.148;8.542;2023-05-09T00:47:04;16.10;;;11.02;;
19861;SDS011;10093;48.148;8.542;2023-05-09T00:49:30;16.52;;;10.25;;
19861;SDS011;10093;48.148;8.542;2023-05-09T00:51:56;21.75;;;11.00;;
19861;SDS011;10093;48.148;8.542;2023-05-09T00:54:23;17.95;;;11.77;;
19861;SDS011;10093;48.148;8.542;2023-05-09T00:56:49;12.32;;;9.13;;
19861;SDS011;10093;48.148;8.542;2023-05-09T00:59:15;17.25;;;10.68;;
19861;SDS011;10093;48.148;8.542;2023-05-09T01:01:42;12.10;;;8.15;;
19861;SDS011;10093;48.148;8.542;2023-05-09T01:04:07;13.60;;;6.90;;
19861;SDS011;10093;48.148;8.542;2023-05-09T01:09:21;6.63;;;5.10;;
19861;SDS011;10093;48.148;8.542;2023-05-09T01:11:59;5.47;;;4.35;;
19861;SDS011;10093;48.148;8.542;2023-05-09T01:17:12;6.13;;;5.10;;
19861;SDS011;10093;48.148;8.542;2023-05-09T01:22:47;9.45;;;6.25;;
19861;SDS011;10093;48.148;8.542;2023-05-09T01:25:41;9.35;;;5.32;;
19861;SDS011;10093;48.148;8.542;2023-05-09T01:28:18;8.68;;;6.18;;
19861;SDS011;10093;48.148;8.542;2023-05-09T01:30:50;14.27;;;7.80;;
19861;SDS011;10093;48.148;8.542;2023-05-09T01:33:18;8.90;;;6.22;;
19861;SDS011;10093;48.148;8.542;2023-05-09T01:35:48;9.93;;;6.40;;
19861;SDS011;10093;48.148;8.542;2023-05-09T01:38:18;10.48;;;6.72;;
19861;SDS011;10093;48.148;8.542;2023-05-09T01:40:47;13.63;;;6.85;;
19861;SDS011;10093;48.148;8.542;2023-05-09T01:43:16;12.13;;;7.50;;
19861;SDS011;10093;48.148;8.542;2023-05-09T01:45:44;11.88;;;6.50;;
19861;SDS011;10093;48.148;8.542;2023-05-09T01:48:10;12.15;;;6.55;;
19861;SDS011;10093;48.148;8.542;2023-05-09T01:50:37;13.25;;;5.93;;
19861;SDS011;10093;48.148;8.542;2023-05-09T01:53:05;14.57;;;6.90;;
19861;SDS011;10093;48.148;8.542;2023-05-09T01:55:33;10.10;;;5.60;;
19861;SDS011;10093;48.148;8.542;2023-05-09T01:58:00;13.98;;;7.70;;
19861;SDS011;10093;48.148;8.542;2023-05-09T02:00:28;17.60;;;7.47;;
19861;SDS011;10093;48.148;8.542;2023-05-09T02:02:56;27.80;;;11.07;;
19861;SDS011;10093;48.148;8.542;2023-05-09T02:05:23;38.38;;;13.70;;
19861;SDS011;10093;48.148;8.542;2023-05-09T02:07:52;49.92;;;15.90;;
19861;SDS011;10093;48.148;8.542;2023-05-09T02:10:23;31.45;;;12.68;;
19861;SDS011;10093;48.148;8.542;2023-05-09T02:12:51;21.33;;;7.97;;
19861;SDS011;10093;48.148;8.542;2023-05-09T02:15:17;17.08;;;7.95;;
19861;SDS011;10093;48.148;8.542;2023-05-09T02:17:43;26.48;;;11.05;;
19861;SDS011;10093;48.148;8.542;2023-05-09T02:20:08;19.98;;;9.63;;
19861;SDS011;10093;48.148;8.542;2023-05-09T02:22:35;22.92;;;9.50;;
19861;SDS011;10093;48.148;8.542;2023-05-09T02:25:04;48.58;;;13.77;;
19861;SDS011;10093;48.148;8.542;2023-05-09T02:27:31;26.75;;;11.40;;
19861;SDS011;10093;48.148;8.542;2023-05-09T02:29:58;46.60;;;14.32;;
19861;SDS011;10093;48.148;8.542;2023-05-09T02:32:30;65.57;;;18.63;;
19861;SDS011;10093;48.148;8.542;2023-05-09T02:34:58;38.20;;;14.73;;
19861;SDS011;10093;48.148;8.542;2023-05-09T02:37:26;30.30;;;13.15;;
19861;SDS011;10093;48.148;8.542;2023-05-09T02:39:53;46.35;;;16.58;;
19861;SDS011;10093;48.148;8.542;2023-05-09T02:42:23;85.32;;;19.75;;
19861;SDS011;10093;48.148;8.542;2023-05-09T02:44:52;74.57;;;17.85;;
19861;SDS011;10093;48.148;8.542;2023-05-09T02:47:18;23.70;;;11.10;;
19861;SDS011;10093;48.148;8.542;2023-05-09T02:49:44;30.50;;;10.43;;
19861;SDS011;10093;48.148;8.542;2023-05-09T02:52:10;51.63;;;12.73;;
19861;SDS011;10093;48.148;8.542;2023-05-09T02:54:36;26.48;;;10.45;;
19861;SDS011;10093;48.148;8.542;2023-05-09T02:57:02;80.38;;;17.05;;
19861;SDS011;10093;48.148;8.542;2023-05-09T02:59:28;77.25;;;18.90;;
19861;SDS011;10093;48.148;8.542;2023-05-09T03:01:54;142.13;;;20.90;;
19861;SDS011;10093;48.148;8.542;2023-05-09T03:04:20;305.73;;;27.75;;
19861;SDS011;10093;48.148;8.542;2023-05-09T03:06:45;353.23;;;25.77;;
19861;SDS011;10093;48.148;8.542;2023-05-09T03:09:11;45.92;;;15.27;;
19861;SDS011;10093;48.148;8.542;2023-05-09T03:11:37;198.90;;;22.05;;
19861;SDS011;10093;48.148;8.542;2023-05-09T03:14:02;359.17;;;25.25;;
19861;SDS011;10093;48.148;8.542;2023-05-09T03:16:28;113.68;;;21.00;;
19861;SDS011;10093;48.148;8.542;2023-05-09T03:18:54;383.70;;;30.17;;
19861;SDS011;10093;48.148;8.542;2023-05-09T03:21:19;132.85;;;27.17;;
19861;SDS011;10093;48.148;8.542;2023-05-09T03:23:45;166.85;;;27.48;;
19861;SDS011;10093;48.148;8.542;2023-05-09T03:26:11;119.05;;;25.38;;
19861;SDS011;10093;48.148;8.542;2023-05-09T03:28:36;109.72;;;24.35;;
19861;SDS011;10093;48.148;8.542;2023-05-09T03:31:02;58.08;;;20.35;;
19861;SDS011;10093;48.148;8.542;2023-05-09T03:33:28;56.97;;;20.45;;
19861;SDS011;10093;48.148;8.542;2023-05-09T03:35:54;92.20;;;25.20;;
19861;SDS011;10093;48.148;8.542;2023-05-09T03:38:19;72.13;;;21.42;;
19861;SDS011;10093;48.148;8.542;2023-05-09T03:40:48;53.10;;;19.42;;
19861;SDS011;10093;48.148;8.542;2023-05-09T03:43:14;166.20;;;22.88;;
19861;SDS011;10093;48.148;8.542;2023-05-09T03:45:40;44.88;;;17.13;;
19861;SDS011;10093;48.148;8.542;2023-05-09T03:48:05;40.83;;;16.13;;
19861;SDS011;10093;48.148;8.542;2023-05-09T03:50:33;246.00;;;24.20;;
19861;SDS011;10093;48.148;8.542;2023-05-09T03:52:59;739.28;;;36.92;;
19861;SDS011;10093;48.148;8.542;2023-05-09T03:55:25;418.45;;;28.08;;
19861;SDS011;10093;48.148;8.542;2023-05-09T03:57:51;53.45;;;17.45;;
19861;SDS011;10093;48.148;8.542;2023-05-09T04:00:17;410.63;;;27.85;;
19861;SDS011;10093;48.148;8.542;2023-05-09T04:02:43;36.05;;;15.85;;
19861;SDS011;10093;48.148;8.542;2023-05-09T04:05:09;221.70;;;24.92;;
19861;SDS011;10093;48.148;8.542;2023-05-09T04:07:34;364.38;;;29.48;;
19861;SDS011;10093;48.148;8.542;2023-05-09T04:10:00;278.58;;;27.70;;
19861;SDS011;10093;48.148;8.542;2023-05-09T04:12:26;196.38;;;28.42;;
19861;SDS011;10093;48.148;8.542;2023-05-09T04:14:51;58.42;;;20.55;;
19861;SDS011;10093;48.148;8.542;2023-05-09T04:17:17;56.60;;;18.92;;
19861;SDS011;10093;48.148;8.542;2023-05-09T04:19:42;57.00;;;19.75;;
19861;SDS011;10093;48.148;8.542;2023-05-09T04:22:08;57.75;;;19.90;;
19861;SDS011;10093;48.148;8.542;2023-05-09T04:24:34;48.10;;;18.55;;
19861;SDS011;10093;48.148;8.542;2023-05-09T04:27:00;50.72;;;19.40;;
19861;SDS011;10093;48.148;8.542;2023-05-09T04:29:26;60.97;;;21.17;;
19861;SDS011;10093;48.148;8.542;2023-05-09T04:31:52;59.40;;;19.73;;
19861;SDS011;10093;48.148;8.542;2023-05-09T04:34:17;42.00;;;17.20;;
19861;SDS011;10093;48.148;8.542;2023-05-09T04:36:43;44.97;;;15.85;;
19861;SDS011;10093;48.148;8.542;2023-05-09T04:39:09;32.17;;;14.05;;
19861;SDS011;10093;48.148;8.542;2023-05-09T04:41:35;25.25;;;13.00;;
19861;SDS011;10093;48.148;8.542;2023-05-09T04:44:00;31.63;;;14.32;;
19861;SDS011;10093;48.148;8.542;2023-05-09T04:46:27;25.90;;;13.18;;
19861;SDS011;10093;48.148;8.542;2023-05-09T04:48:52;31.40;;;15.65;;
19861;SDS011;10093;48.148;8.542;2023-05-09T04:51:18;19.05;;;12.43;;
19861;SDS011;10093;48.148;8.542;2023-05-09T04:53:43;22.02;;;12.30;;
19861;SDS011;10093;48.148;8.542;2023-05-09T04:56:09;21.88;;;13.07;;
19861;SDS011;10093;48.148;8.542;2023-05-09T04:58:35;18.15;;;12.23;;
19861;SDS011;10093;48.148;8.542;2023-05-09T05:01:03;20.00;;;12.20;;
19861;SDS011;10093;48.148;8.542;2023-05-09T05:03:30;22.23;;;12.10;;
19861;SDS011;10093;48.148;8.542;2023-05-09T05:05:56;19.80;;;12.40;;
19861;SDS011;10093;48.148;8.542;2023-05-09T05:08:21;17.98;;;11.75;;
19861;SDS011;10093;48.148;8.542;2023-05-09T05:10:47;16.23;;;11.18;;
19861;SDS011;10093;48.148;8.542;2023-05-09T05:13:13;17.52;;;11.95;;
19861;SDS011;10093;48.148;8.542;2023-05-09T05:15:40;15.27;;;11.23;;
19861;SDS011;10093;48.148;8.542;2023-05-09T05:18:05;14.65;;;11.38;;
19861;SDS011;10093;48.148;8.542;2023-05-09T05:20:31;14.68;;;10.60;;
19861;SDS011;10093;48.148;8.542;2023-05-09T05:22:57;16.27;;;10.85;;
19861;SDS011;10093;48.148;8.542;2023-05-09T05:25:26;15.13;;;10.63;;
19861;SDS011;10093;48.148;8.542;2023-05-09T05:27:51;12.50;;;9.90;;
19861;SDS011;10093;48.148;8.542;2023-05-09T05:30:17;12.45;;;9.77;;
19861;SDS011;10093;48.148;8.542;2023-05-09T05:32:44;11.73;;;9.48;;
19861;SDS011;10093;48.148;8.542;2023-05-09T05:35:10;11.57;;;9.77;;
19861;SDS011;10093;48.148;8.542;2023-05-09T05:37:36;13.10;;;9.05;;
19861;SDS011;10093;48.148;8.542;2023-05-09T05:40:03;13.85;;;9.25;;
19861;SDS011;10093;48.148;8.542;2023-05-09T05:42:30;10.80;;;8.68;;
19861;SDS011;10093;48.148;8.542;2023-05-09T05:44:55;9.52;;;8.23;;
19861;SDS011;10093;48.148;8.542;2023-05-09T05:47:21;11.73;;;8.82;;
19861;SDS011;10093;48.148;8.542;2023-05-09T05:49:47;10.02;;;8.38;;
19861;SDS011;10093;48.148;8.542;2023-05-09T05:52:12;10.07;;;8.55;;
19861;SDS011;10093;48.148;8.542;2023-05-09T05:54:38;11.02;;;8.40;;
19861;SDS011;10093;48.148;8.542;2023-05-09T05:57:04;8.85;;;7.65;;
19861;SDS011;10093;48.148;8.542;2023-05-09T05:59:30;8.65;;;6.85;;
19861;SDS011;10093;48.148;8.542;2023-05-09T06:01:55;7.70;;;6.65;;
19861;SDS011;10093;48.148;8.542;2023-05-09T06:04:21;6.95;;;5.97;;
19861;SDS011;10093;48.148;8.542;2023-05-09T06:06:46;5.65;;;5.03;;
19861;SDS011;10093;48.148;8.542;2023-05-09T06:09:12;5.35;;;4.85;;
19861;SDS011;10093;48.148;8.542;2023-05-09T06:11:38;5.20;;;4.68;;
19861;SDS011;10093;48.148;8.542;2023-05-09T06:14:03;5.70;;;4.93;;
19861;SDS011;10093;48.148;8.542;2023-05-09T06:16:29;5.15;;;4.65;;
19861;SDS011;10093;48.148;8.542;2023-05-09T06:18:54;5.50;;;4.72;;
19861;SDS011;10093;48.148;8.542;2023-05-09T06:21:20;4.68;;;4.22;;
19861;SDS011;10093;48.148;8.542;2023-05-09T06:23:45;4.88;;;4.47;;
19861;SDS011;10093;48.148;8.542;2023-05-09T06:26:11;4.07;;;3.78;;
19861;SDS011;10093;48.148;8.542;2023-05-09T06:28:38;5.35;;;3.70;;
19861;SDS011;10093;48.148;8.542;2023-05-09T06:31:04;3.75;;;3.45;;
19861;SDS011;10093;48.148;8.542;2023-05-09T06:33:29;4.53;;;4.13;;
19861;SDS011;10093;48.148;8.542;2023-05-09T06:35:55;4.30;;;3.90;;
19861;SDS011;10093;48.148;8.542;2023-05-09T06:38:22;5.93;;;3.72;;
19861;SDS011;10093;48.148;8.542;2023-05-09T06:40:48;4.32;;;3.92;;
19861;SDS011;10093;48.148;8.542;2023-05-09T06:43:14;4.35;;;3.95;;
19861;SDS011;10093;48.148;8.542;2023-05-09T06:45:39;4.68;;;4.28;;
19861;SDS011;10093;48.148;8.542;2023-05-09T06:48:05;5.03;;;3.90;;
19861;SDS011;10093;48.148;8.542;2023-05-09T06:50:31;5.18;;;4.28;;
19861;SDS011;10093;48.148;8.542;2023-05-09T06:52:56;5.28;;;4.38;;
19861;SDS011;10093;48.148;8.542;2023-05-09T06:55:22;6.07;;;4.50;;
19861;SDS011;10093;48.148;8.542;2023-05-09T06:57:47;4.95;;;4.47;;
19861;SDS011;10093;48.148;8.542;2023-05-09T07:00:13;5.20;;;4.70;;
19861;SDS011;10093;48.148;8.542;2023-05-09T07:02:39;4.72;;;4.15;;
19861;SDS011;10093;48.148;8.542;2023-05-09T07:05:06;4.70;;;4.30;;
19861;SDS011;10093;48.148;8.542;2023-05-09T07:07:33;3.92;;;3.63;;
19861;SDS011;10093;48.148;8.542;2023-05-09T07:09:59;3.85;;;3.50;;
19861;SDS011;10093;48.148;8.542;2023-05-09T07:12:27;4.43;;;3.42;;
19861;SDS011;10093;48.148;8.542;2023-05-09T07:14:55;3.63;;;3.33;;
19861;SDS011;10093;48.148;8.542;2023-05-09T07:17:21;3.88;;;3.50;;
19861;SDS011;10093;48.148;8.542;2023-05-09T07:19:48;7.93;;;3.42;;
19861;SDS011;10093;48.148;8.542;2023-05-09T07:22:14;7.00;;;3.90;;
19861;SDS011;10093;48.148;8.542;2023-05-09T07:24:39;4.30;;;3.90;;
19861;SDS011;10093;48.148;8.542;2023-05-09T07:27:05;7.18;;;3.25;;
19861;SDS011;10093;48.148;8.542;2023-05-09T07:29:31;3.50;;;3.20;;
19861;SDS011;10093;48.148;8.542;2023-05-09T07:31:56;3.40;;;3.10;;
19861;SDS011;10093;48.148;8.542;2023-05-09T07:34:22;3.78;;;3.15;;
19861;SDS011;10093;48.148;8.542;2023-05-09T07:36:49;3.10;;;2.53;;
19861;SDS011;10093;48.148;8.542;2023-05-09T07:39:14;2.95;;;2.65;;
19861;SDS011;10093;48.148;8.542;2023-05-09T07:41:40;2.67;;;2.20;;
19861;SDS011;10093;48.148;8.542;2023-05-09T07:44:06;2.88;;;2.67;;
19861;SDS011;10093;48.148;8.542;2023-05-09T07:46:33;3.28;;;2.22;;
19861;SDS011;10093;48.148;8.542;2023-05-09T07:49:01;2.83;;;2.10;;
19861;SDS011;10093;48.148;8.542;2023-05-09T07:51:27;3.13;;;2.35;;
19861;SDS011;10093;48.148;8.542;2023-05-09T07:53:53;3.25;;;2.83;;
19861;SDS011;10093;48.148;8.542;2023-05-09T07:56:20;2.55;;;2.35;;
19861;SDS011;10093;48.148;8.542;2023-05-09T07:58:46;2.00;;;1.80;;
19861;SDS011;10093;48.148;8.542;2023-05-09T08:01:12;2.75;;;2.53;;
19861;SDS011;10093;48.148;8.542;2023-05-09T08:03:38;2.50;;;2.38;;
19861;SDS011;10093;48.148;8.542;2023-05-09T08:06:03;3.58;;;2.42;;
19861;SDS011;10093;48.148;8.542;2023-05-09T08:08:29;4.95;;;2.67;;
19861;SDS011;10093;48.148;8.542;2023-05-09T08:10:55;3.30;;;2.10;;
19861;SDS011;10093;48.148;8.542;2023-05-09T08:13:20;3.08;;;2.10;;
19861;SDS011;10093;48.148;8.542;2023-05-09T08:15:46;2.30;;;2.10;;
19861;SDS011;10093;48.148;8.542;2023-05-09T08:18:12;2.75;;;1.70;;
19861;SDS011;10093;48.148;8.542;2023-05-09T08:20:38;1.58;;;1.48;;
19861;SDS011;10093;48.148;8.542;2023-05-09T08:23:04;1.95;;;1.58;;
19861;SDS011;10093;48.148;8.542;2023-05-09T08:25:30;4.05;;;1.35;;
19861;SDS011;10093;48.148;8.542;2023-05-09T08:27:56;1.52;;;1.33;;
19861;SDS011;10093;48.148;8.542;2023-05-09T08:30:22;2.10;;;1.70;;
19861;SDS011;10093;48.148;8.542;2023-05-09T08:32:47;1.52;;;1.23;;
19861;SDS011;10093;48.148;8.542;2023-05-09T08:35:13;1.38;;;1.25;;
19861;SDS011;10093;48.148;8.542;2023-05-09T08:37:39;3.22;;;1.50;;
19861;SDS011;10093;48.148;8.542;2023-05-09T08:40:05;1.08;;;0.98;;
19861;SDS011;10093;48.148;8.542;2023-05-09T08:42:35;2.35;;;1.20;;
19861;SDS011;10093;48.148;8.542;2023-05-09T08:45:09;1.50;;;1.33;;
19861;SDS011;10093;48.148;8.542;2023-05-09T08:47:36;1.88;;;1.40;;
19861;SDS011;10093;48.148;8.542;2023-05-09T08:50:02;1.45;;;1.38;;
19861;SDS011;10093;48.148;8.542;2023-05-09T08:52:30;1.05;;;1.05;;
19861;SDS011;10093;48.148;8.542;2023-05-09T08:54:56;1.35;;;0.88;;
19861;SDS011;10093;48.148;8.542;2023-05-09T08:57:22;1.15;;;1.15;;
19861;SDS011;10093;48.148;8.542;2023-05-09T08:59:48;1.40;;;1.10;;
19861;SDS011;10093;48.148;8.542;2023-05-09T09:02:16;3.90;;;0.90;;
19861;SDS011;10093;48.148;8.542;2023-05-09T09:04:42;1.00;;;0.90;;
19861;SDS011;10093;48.148;8.542;2023-05-09T09:07:09;1.75;;;1.15;;
19861;SDS011;10093;48.148;8.542;2023-05-09T09:09:35;0.90;;;0.80;;
19861;SDS011;10093;48.148;8.542;2023-05-09T09:12:04;3.53;;;0.90;;
19861;SDS011;10093;48.148;8.542;2023-05-09T09:14:31;1.85;;;0.52;;
19861;SDS011;10093;48.148;8.542;2023-05-09T09:17:02;2.00;;;0.68;;
19861;SDS011;10093;48.148;8.542;2023-05-09T09:19:30;0.70;;;0.70;;
19861;SDS011;10093;48.148;8.542;2023-05-09T09:22:00;0.77;;;0.50;;
19861;SDS011;10093;48.148;8.542;2023-05-09T09:24:29;0.75;;;0.57;;
19861;SDS011;10093;48.148;8.542;2023-05-09T09:26:55;1.73;;;0.50;;
19861;SDS011;10093;48.148;8.542;2023-05-09T09:29:21;0.77;;;0.30;;
19861;SDS011;10093;48.148;8.542;2023-05-09T09:31:50;0.43;;;0.43;;
19861;SDS011;10093;48.148;8.542;2023-05-09T09:34:21;1.50;;;0.55;;
19861;SDS011;10093;48.148;8.542;2023-05-09T09:36:47;1.70;;;0.40;;
19861;SDS011;10093;48.148;8.542;2023-05-09T09:39:13;0.60;;;0.60;;
19861;SDS011;10093;48.148;8.542;2023-05-09T09:41:40;2.45;;;0.60;;
19861;SDS011;10093;48.148;8.542;2023-05-09T09:44:24;3.05;;;0.60;;
19861;SDS011;10093;48.148;8.542;2023-05-09T09:46:51;1.48;;;0.50;;
19861;SDS011;10093;48.148;8.542;2023-05-09T09:49:18;2.58;;;0.55;;
19861;SDS011;10093;48.148;8.542;2023-05-09T09:51:49;2.00;;;0.70;;
19861;SDS011;10093;48.148;8.542;2023-05-09T09:54:18;0.75;;;0.60;;
19861;SDS011;10093;48.148;8.542;2023-05-09T09:56:48;1.55;;;0.63;;
19861;SDS011;10093;48.148;8.542;2023-05-09T09:59:18;1.00;;;0.57;;
19861;SDS011;10093;48.148;8.542;2023-05-09T10:04:31;2.13;;;0.50;;
19861;SDS011;10093;48.148;8.542;2023-05-09T10:06:59;0.40;;;0.40;;
19861;SDS011;10093;48.148;8.542;2023-05-09T10:09:30;1.50;;;0.50;;
19861;SDS011;10093;48.148;8.542;2023-05-09T10:11:58;1.10;;;0.70;;
19861;SDS011;10093;48.148;8.542;2023-05-09T10:14:27;0.80;;;0.65;;
19861;SDS011;10093;48.148;8.542;2023-05-09T10:16:56;2.08;;;0.70;;
19861;SDS011;10093;48.148;8.542;2023-05-09T10:19:25;0.85;;;0.50;;
19861;SDS011;10093;48.148;8.542;2023-05-09T10:27:11;0.50;;;0.50;;
19861;SDS011;10093;48.148;8.542;2023-05-09T10:29:48;0.57;;;0.50;;
19861;SDS011;10093;48.148;8.542;2023-05-09T10:32:26;1.10;;;0.40;;
19861;SDS011;10093;48.148;8.542;2023-05-09T10:34:57;0.50;;;0.30;;
19861;SDS011;10093;48.148;8.542;2023-05-09T10:37:29;2.08;;;0.30;;
19861;SDS011;10093;48.148;8.542;2023-05-09T10:39:55;0.40;;;0.38;;
19861;SDS011;10093;48.148;8.542;2023-05-09T10:42:21;1.00;;;0.30;;
19861;SDS011;10093;48.148;8.542;2023-05-09T10:44:49;0.52;;;0.40;;
19861;SDS011;10093;48.148;8.542;2023-05-09T10:47:17;0.40;;;0.40;;
19861;SDS011;10093;48.148;8.542;2023-05-09T10:49:43;0.40;;;0.40;;
19861;SDS011;10093;48.148;8.542;2023-05-09T10:52:10;0.80;;;0.50;;
19861;SDS011;10093;48.148;8.542;2023-05-09T10:54:36;0.70;;;0.50;;
19861;SDS011;10093;48.148;8.542;2023-05-09T10:57:02;1.15;;;0.45;;
19861;SDS011;10093;48.148;8.542;2023-05-09T10:59:34;2.50;;;0.50;;
19861;SDS011;10093;48.148;8.542;2023-05-09T11:02:01;0.40;;;0.40;;
19861;SDS011;10093;48.148;8.542;2023-05-09T11:04:28;2.38;;;0.47;;
19861;SDS011;10093;48.148;8.542;2023-05-09T11:06:56;1.75;;;0.50;;
19861;SDS011;10093;48.148;8.542;2023-05-09T11:11:56;0.65;;;0.40;;
19861;SDS011;10093;48.148;8.542;2023-05-09T11:15:03;0.52;;;0.40;;
19861;SDS011;10093;48.148;8.542;2023-05-09T11:24:45;0.32;;;0.30;;
19861;SDS011;10093;48.148;8.542;2023-05-09T11:27:15;2.85;;;0.40;;
19861;SDS011;10093;48.148;8.542;2023-05-09T11:29:57;0.68;;;0.40;;
19861;SDS011;10093;48.148;8.542;2023-05-09T11:32:27;3.42;;;0.57;;
19861;SDS011;10093;48.148;8.542;2023-05-09T11:40:24;1.60;;;0.50;;
19861;SDS011;10093;48.148;8.542;2023-05-09T11:42:52;1.30;;;0.40;;
19861;SDS011;10093;48.148;8.542;2023-05-09T11:45:19;3.00;;;0.30;;
19861;SDS011;10093;48.148;8.542;2023-05-09T11:47:46;0.30;;;0.30;;
19861;SDS011;10093;48.148;8.542;2023-05-09T11:50:13;0.90;;;0.30;;
19861;SDS011;10093;48.148;8.542;2023-05-09T11:52:41;1.88;;;0.40;;
19861;SDS011;10093;48.148;8.542;2023-05-09T11:57:44;0.88;;;0.40;;
19861;SDS011;10093;48.148;8.542;2023-05-09T12:00:14;0.63;;;0.20;;
19861;SDS011;10093;48.148;8.542;2023-05-09T12:02:42;0.65;;;0.30;;
19861;SDS011;10093;48.148;8.542;2023-05-09T12:05:08;0.57;;;0.30;;
19861;SDS011;10093;48.148;8.542;2023-05-09T12:07:36;1.55;;;0.35;;
19861;SDS011;10093;48.148;8.542;2023-05-09T12:10:07;2.97;;;0.32;;
19861;SDS011;10093;48.148;8.542;2023-05-09T12:12:34;1.05;;;0.50;;
19861;SDS011;10093;48.148;8.542;2023-05-09T12:15:01;3.13;;;0.50;;
19861;SDS011;10093;48.148;8.542;2023-05-09T12:17:28;1.52;;;0.30;;
19861;SDS011;10093;48.148;8.542;2023-05-09T12:19:55;0.98;;;0.38;;
19861;SDS011;10093;48.148;8.542;2023-05-09T12:22:23;1.30;;;0.30;;
19861;SDS011;10093;48.148;8.542;2023-05-09T12:24:49;1.40;;;0.40;;
19861;SDS011;10093;48.148;8.542;2023-05-09T12:27:15;0.40;;;0.30;;
19861;SDS011;10093;48.148;8.542;2023-05-09T12:29:42;1.55;;;0.30;;
19861;SDS011;10093;48.148;8.542;2023-05-09T12:32:10;1.45;;;0.30;;
19861;SDS011;10093;48.148;8.542;2023-05-09T12:34:37;0.95;;;0.40;;
19861;SDS011;10093;48.148;8.542;2023-05-09T12:37:03;0.68;;;0.38;;
19861;SDS011;10093;48.148;8.542;2023-05-09T12:39:38;1.40;;;0.30;;
19861;SDS011;10093;48.148;8.542;2023-05-09T12:42:08;0.55;;;0.40;;
19861;SDS011;10093;48.148;8.542;2023-05-09T12:44:36;0.95;;;0.30;;
19861;SDS011;10093;48.148;8.542;2023-05-09T12:47:02;1.38;;;0.40;;
19861;SDS011;10093;48.148;8.542;2023-05-09T12:49:28;0.85;;;0.40;;
19861;SDS011;10093;48.148;8.542;2023-05-09T12:51:55;0.68;;;0.38;;
19861;SDS011;10093;48.148;8.542;2023-05-09T12:54:23;0.75;;;0.30;;
19861;SDS011;10093;48.148;8.542;2023-05-09T12:56:56;1.20;;;0.32;;
19861;SDS011;10093;48.148;8.542;2023-05-09T12:59:22;3.13;;;0.38;;
19861;SDS011;10093;48.148;8.542;2023-05-09T13:01:50;0.40;;;0.20;;
19861;SDS011;10093;48.148;8.542;2023-05-09T13:04:23;1.42;;;0.40;;
19861;SDS011;10093;48.148;8.542;2023-05-09T13:06:50;0.47;;;0.30;;
19861;SDS011;10093;48.148;8.542;2023-05-09T13:09:19;2.25;;;0.30;;
19861;SDS011;10093;48.148;8.542;2023-05-09T13:11:46;0.30;;;0.30;;
19861;SDS011;10093;48.148;8.542;2023-05-09T13:14:12;0.35;;;0.30;;
19861;SDS011;10093;48.148;8.542;2023-05-09T13:16:38;1.40;;;0.30;;
19861;SDS011;10093;48.148;8.542;2023-05-09T13:19:04;0.90;;;0.40;;
19861;SDS011;10093;48.148;8.542;2023-05-09T13:21:30;1.85;;;0.30;;
19861;SDS011;10093;48.148;8.542;2023-05-09T13:23:56;0.40;;;0.30;;
19861;SDS011;10093;48.148;8.542;2023-05-09T13:26:22;0.80;;;0.28;;
19861;SDS011;10093;48.148;8.542;2023-05-09T13:28:48;1.70;;;0.30;;
19861;SDS011;10093;48.148;8.542;2023-05-09T13:31:13;0.82;;;0.30;;
19861;SDS011;10093;48.148;8.542;2023-05-09T13:33:39;1.55;;;0.22;;
19861;SDS011;10093;48.148;8.542;2023-05-09T13:36:05;0.30;;;0.30;;
19861;SDS011;10093;48.148;8.542;2023-05-09T13:38:31;0.30;;;0.30;;
19861;SDS011;10093;48.148;8.542;2023-05-09T13:41:00;3.33;;;0.40;;
19861;SDS011;10093;48.148;8.542;2023-05-09T13:43:26;0.80;;;0.30;;
19861;SDS011;10093;48.148;8.542;2023-05-09T13:45:51;0.75;;;0.30;;
19861;SDS011;10093;48.148;8.542;2023-05-09T13:48:17;0.30;;;0.30;;
19861;SDS011;10093;48.148;8.542;2023-05-09T13:50:42;1.85;;;0.30;;
19861;SDS011;10093;48.148;8.542;2023-05-09T13:53:09;0.35;;;0.30;;
19861;SDS011;10093;48.148;8.542;2023-05-09T13:55:35;7.40;;;0.40;;
19861;SDS011;10093;48.148;8.542;2023-05-09T13:58:00;1.20;;;0.40;;
19861;SDS011;10093;48.148;8.542;2023-05-09T14:00:26;5.30;;;0.30;;
19861;SDS011;10093;48.148;8.542;2023-05-09T14:02:52;0.38;;;0.38;;
19861;SDS011;10093;48.148;8.542;2023-05-09T14:05:17;1.17;;;0.50;;
19861;SDS011;10093;48.148;8.542;2023-05-09T14:07:43;0.50;;;0.30;;
19861;SDS011;10093;48.148;8.542;2023-05-09T14:10:09;4.15;;;0.45;;
19861;SDS011;10093;48.148;8.542;2023-05-09T14:12:35;2.15;;;0.40;;
19861;SDS011;10093;48.148;8.542;2023-05-09T14:15:03;0.52;;;0.40;;
19861;SDS011;10093;48.148;8.542;2023-05-09T14:17:30;3.03;;;0.30;;
19861;SDS011;10093;48.148;8.542;2023-05-09T14:19:56;0.32;;;0.32;;
19861;SDS011;10093;48.148;8.542;2023-05-09T14:22:21;1.52;;;0.30;;
19861;SDS011;10093;48.148;8.542;2023-05-09T14:24:47;1.15;;;0.30;;
19861;SDS011;10093;48.148;8.542;2023-05-09T14:27:12;1.05;;;0.30;;
19861;SDS011;10093;48.148;8.542;2023-05-09T14:29:38;0.30;;;0.30;;
19861;SDS011;10093;48.148;8.542;2023-05-09T14:32:04;1.33;;;0.30;;
19861;SDS011;10093;48.148;8.542;2023-05-09T14:34:32;0.30;;;0.30;;
19861;SDS011;10093;48.148;8.542;2023-05-09T14:36:57;0.20;;;0.20;;
19861;SDS011;10093;48.148;8.542;2023-05-09T14:39:23;0.65;;;0.30;;
19861;SDS011;10093;48.148;8.542;2023-05-09T14:41:48;0.77;;;0.32;;
19861;SDS011;10093;48.148;8.542;2023-05-09T14:44:14;0.30;;;0.30;;
19861;SDS011;10093;48.148;8.542;2023-05-09T14:46:41;0.65;;;0.32;;
19861;SDS011;10093;48.148;8.542;2023-05-09T14:49:07;0.30;;;0.30;;
19861;SDS011;10093;48.148;8.542;2023-05-09T14:51:33;0.90;;;0.40;;
19861;SDS011;10093;48.148;8.542;2023-05-09T14:53:59;0.30;;;0.30;;
19861;SDS011;10093;48.148;8.542;2023-05-09T14:56:25;0.30;;;0.30;;
19861;SDS011;10093;48.148;8.542;2023-05-09T14:58:52;2.20;;;0.40;;
19861;SDS011;10093;48.148;8.542;2023-05-09T15:01:18;0.82;;;0.30;;
19861;SDS011;10093;48.148;8.542;2023-05-09T15:03:43;0.93;;;0.45;;
19861;SDS011;10093;48.148;8.542;2023-05-09T15:06:09;2.90;;;0.40;;
19861;SDS011;10093;48.148;8.542;2023-05-09T15:08:35;1.13;;;0.40;;
19861;SDS011;10093;48.148;8.542;2023-05-09T15:11:00;1.00;;;0.52;;